Portada
METAR-TAF:

METAR-TAF

Aeroports :

Base aèria

Tulln an der Donau, Àustria

latitud: 48-19N, longitud: 016-07E, altitud: 175 m

METAR: manca

Hora: 04:22 (03:22 UTC)

Pronòstic

L'informe es va fer fa 16 hores i 7 minuts, a les 11:15 UTC
Pronòstic vàlid del 24 a les 12 UTC al 24 a les 21 UTC
Vent 3 kt amb direcció variable
Visibilitat: 8000 m
Cel ennuvolat a una alçada de 1100 ft
Temporalment
l' 24 a les 13 UTC al 24 a les 18 UTC
Visibilitat 10 km o més
Escasses núvols a una alçada de 1500 ft

TAF: LOXT 241115Z 2412/2421 VRB03KT 8000 BKN011 TEMPO 2413/2418 9999 FEW015

Observacions i pronòstics meteorològics de més de 4000 aeroports (METAR i TAF).

Les estacions disponibles són els punts grocs i vermells al mapa.

Posi el ratolí al punt desitjat per veure el nom de l'estació.

Feu clic per veure les observacions i els pronòstics meteorològics.

Per canviar el mapa: feu clic els botons verds amb una creu de color negre per apropar; al botó verd amb un guió per allunyar la imatge; o en les fletxes verdes per a mapes adjacents.


METAR-TAF: